Terminal Aerodrome Forecast
Issued by NWS Austin/San Antonio, TX

Home | Current Version | Previous Version | Text Only | Print | Product List | Glossary On
Versions: 1 2 3 4 5 6 7 8 9 10 11 12 13 14 15 16 17 18 19 20 21 22 23 24 25 26
000
FTUS44 KEWX 041148
TAFAUS
TAF
KAUS 041148Z 0412/0518 VRB03KT 1/4SM FG OVC002
     FM041700 19007KT 1/2SM -DZ FG OVC003
      TEMPO 0419/0422 3SM SHRA
     FM042200 02009G20KT 3SM BR OVC005
     FM050000 01020G30KT P6SM OVC007 PROB30 0506/0512 3SM SHRA
     FM051500 01020G30KT P6SM OVC015 PROB30 0515/0518 5SM -FZRA=

USA.gov is the U.S. government's official web portal to all federal, state and local government web resources and services.